sensor_id;sensor_type;location;lat;lon;timestamp;pressure;altitude;pressure_sealevel;temperature;humidity
7333;BME280;3707;43.618;25.342;2023-02-18T00:01:21;100733.28;;;10.51;55.61
7333;BME280;3707;43.618;25.342;2023-02-18T00:03:50;100744.88;;;10.67;55.27
7333;BME280;3707;43.618;25.342;2023-02-18T00:06:18;100728.28;;;10.59;55.39
7333;BME280;3707;43.618;25.342;2023-02-18T00:08:46;100697.53;;;10.39;55.60
7333;BME280;3707;43.618;25.342;2023-02-18T00:11:14;100736.31;;;10.69;54.92
7333;BME280;3707;43.618;25.342;2023-02-18T00:13:42;100735.41;;;10.67;54.16
7333;BME280;3707;43.618;25.342;2023-02-18T00:16:10;100728.75;;;10.77;53.96
7333;BME280;3707;43.618;25.342;2023-02-18T00:18:38;100728.69;;;10.75;53.24
7333;BME280;3707;43.618;25.342;2023-02-18T00:21:07;100728.19;;;10.90;52.78
7333;BME280;3707;43.618;25.342;2023-02-18T00:23:34;100722.94;;;10.87;52.37
7333;BME280;3707;43.618;25.342;2023-02-18T00:26:02;100723.06;;;10.93;52.02
7333;BME280;3707;43.618;25.342;2023-02-18T00:28:30;100701.16;;;10.80;51.97
7333;BME280;3707;43.618;25.342;2023-02-18T00:30:57;100722.00;;;10.85;51.95
7333;BME280;3707;43.618;25.342;2023-02-18T00:33:24;100704.66;;;10.82;52.29
7333;BME280;3707;43.618;25.342;2023-02-18T00:35:51;100711.56;;;10.82;52.13
7333;BME280;3707;43.618;25.342;2023-02-18T00:38:19;100707.13;;;10.78;52.65
7333;BME280;3707;43.618;25.342;2023-02-18T00:40:46;100700.97;;;10.73;52.68
7333;BME280;3707;43.618;25.342;2023-02-18T00:43:13;100694.78;;;10.68;52.49
7333;BME280;3707;43.618;25.342;2023-02-18T00:45:40;100694.78;;;10.68;52.70
7333;BME280;3707;43.618;25.342;2023-02-18T00:48:06;100684.28;;;10.62;53.43
7333;BME280;3707;43.618;25.342;2023-02-18T00:50:33;100686.03;;;10.63;52.64
7333;BME280;3707;43.618;25.342;2023-02-18T00:53:00;100672.91;;;10.57;52.58
7333;BME280;3707;43.618;25.342;2023-02-18T00:55:28;100681.88;;;10.69;52.57
7333;BME280;3707;43.618;25.342;2023-02-18T00:57:55;100682.75;;;10.71;52.52
7333;BME280;3707;43.618;25.342;2023-02-18T01:00:22;100656.63;;;10.62;52.35
7333;BME280;3707;43.618;25.342;2023-02-18T01:02:49;100668.91;;;10.71;51.96
7333;BME280;3707;43.618;25.342;2023-02-18T01:05:19;100670.69;;;10.72;52.05
7333;BME280;3707;43.618;25.342;2023-02-18T01:07:46;100666.25;;;10.68;52.10
7333;BME280;3707;43.618;25.342;2023-02-18T01:10:13;100669.91;;;10.76;51.73
7333;BME280;3707;43.618;25.342;2023-02-18T01:12:41;100657.81;;;10.76;51.92
7333;BME280;3707;43.618;25.342;2023-02-18T01:15:10;100653.41;;;10.74;51.39
7333;BME280;3707;43.618;25.342;2023-02-18T01:17:39;100644.81;;;10.75;51.07
7333;BME280;3707;43.618;25.342;2023-02-18T01:20:07;100641.66;;;10.88;50.77
7333;BME280;3707;43.618;25.342;2023-02-18T01:22:34;100612.84;;;10.76;50.60
7333;BME280;3707;43.618;25.342;2023-02-18T01:25:01;100635.59;;;10.87;50.28
7333;BME280;3707;43.618;25.342;2023-02-18T01:27:27;100633.19;;;10.95;50.25
7333;BME280;3707;43.618;25.342;2023-02-18T01:29:56;100621.09;;;10.97;50.63
7333;BME280;3707;43.618;25.342;2023-02-18T01:32:22;100623.03;;;11.06;49.64
7333;BME280;3707;43.618;25.342;2023-02-18T01:34:49;100613.59;;;11.09;49.67
7333;BME280;3707;43.618;25.342;2023-02-18T01:37:16;100606.75;;;11.13;49.77
7333;BME280;3707;43.618;25.342;2023-02-18T01:39:43;100603.53;;;11.24;49.41
7333;BME280;3707;43.618;25.342;2023-02-18T01:42:17;100611.78;;;11.49;48.73
7333;BME280;3707;43.618;25.342;2023-02-18T01:44:46;100619.56;;;11.47;48.55
7333;BME280;3707;43.618;25.342;2023-02-18T01:47:15;100619.81;;;11.59;48.54
7333;BME280;3707;43.618;25.342;2023-02-18T01:49:44;100623.69;;;11.79;47.73
7333;BME280;3707;43.618;25.342;2023-02-18T01:52:21;100607.28;;;11.80;47.65
7333;BME280;3707;43.618;25.342;2023-02-18T01:54:52;100610.84;;;11.87;47.04
7333;BME280;3707;43.618;25.342;2023-02-18T01:57:24;100603.91;;;11.86;46.90
7333;BME280;3707;43.618;25.342;2023-02-18T01:59:55;100616.25;;;11.99;46.35
7333;BME280;3707;43.618;25.342;2023-02-18T02:02:27;100618.09;;;12.05;46.31
7333;BME280;3707;43.618;25.342;2023-02-18T02:04:54;100616.38;;;12.05;46.02
7333;BME280;3707;43.618;25.342;2023-02-18T02:07:23;100592.03;;;12.00;46.18
7333;BME280;3707;43.618;25.342;2023-02-18T02:09:52;100606.78;;;12.01;46.24
7333;BME280;3707;43.618;25.342;2023-02-18T02:12:39;100610.22;;;12.00;46.26
7333;BME280;3707;43.618;25.342;2023-02-18T02:15:22;100621.59;;;12.05;46.25
7333;BME280;3707;43.618;25.342;2023-02-18T02:18:02;100605.84;;;11.99;46.30
7333;BME280;3707;43.618;25.342;2023-02-18T02:23:42;100618.75;;;11.93;46.39
7333;BME280;3707;43.618;25.342;2023-02-18T02:32:36;100603.78;;;11.80;47.11
7333;BME280;3707;43.618;25.342;2023-02-18T02:35:14;100582.81;;;11.71;46.72
7333;BME280;3707;43.618;25.342;2023-02-18T02:37:48;100586.25;;;11.70;46.68
7333;BME280;3707;43.618;25.342;2023-02-18T02:40:22;100573.28;;;11.70;46.46
7333;BME280;3707;43.618;25.342;2023-02-18T02:42:59;100551.66;;;11.71;46.88
7333;BME280;3707;43.618;25.342;2023-02-18T02:45:37;100520.22;;;11.56;46.92
7333;BME280;3707;43.618;25.342;2023-02-18T02:48:14;100558.91;;;11.88;45.88
7333;BME280;3707;43.618;25.342;2023-02-18T02:50:51;100560.84;;;12.00;45.86
7333;BME280;3707;43.618;25.342;2023-02-18T02:53:22;100548.94;;;12.14;44.86
7333;BME280;3707;43.618;25.342;2023-02-18T02:55:50;100556.94;;;12.28;44.76
7333;BME280;3707;43.618;25.342;2023-02-18T02:58:19;100567.56;;;12.40;44.11
7333;BME280;3707;43.618;25.342;2023-02-18T03:00:55;100576.41;;;12.53;44.04
7333;BME280;3707;43.618;25.342;2023-02-18T03:07:00;100577.56;;;12.70;43.68
7333;BME280;3707;43.618;25.342;2023-02-18T03:09:38;100552.44;;;12.73;43.27
7333;BME280;3707;43.618;25.342;2023-02-18T03:12:13;100564.75;;;12.88;42.97
7333;BME280;3707;43.618;25.342;2023-02-18T03:14:46;100587.56;;;13.06;42.69
7333;BME280;3707;43.618;25.342;2023-02-18T03:17:21;100572.94;;;13.12;42.71
7333;BME280;3707;43.618;25.342;2023-02-18T03:19:54;100578.25;;;13.21;41.96
7333;BME280;3707;43.618;25.342;2023-02-18T03:22:27;100560.78;;;13.11;42.35
7333;BME280;3707;43.618;25.342;2023-02-18T03:24:56;100563.28;;;13.07;42.70
7333;BME280;3707;43.618;25.342;2023-02-18T03:27:27;100567.69;;;13.09;42.39
7333;BME280;3707;43.618;25.342;2023-02-18T03:29:59;100564.09;;;13.01;42.44
7333;BME280;3707;43.618;25.342;2023-02-18T03:32:28;100563.69;;;12.74;43.18
7333;BME280;3707;43.618;25.342;2023-02-18T03:35:00;100574.19;;;12.77;43.08
7333;BME280;3707;43.618;25.342;2023-02-18T03:37:30;100570.66;;;12.75;43.42
7333;BME280;3707;43.618;25.342;2023-02-18T03:39:59;100567.03;;;12.64;43.73
7333;BME280;3707;43.618;25.342;2023-02-18T03:42:28;100547.63;;;12.40;44.43
7333;BME280;3707;43.618;25.342;2023-02-18T03:44:54;100567.63;;;12.46;44.30
7333;BME280;3707;43.618;25.342;2023-02-18T03:47:22;100552.72;;;12.34;43.99
7333;BME280;3707;43.618;25.342;2023-02-18T03:49:49;100572.75;;;12.40;44.57
7333;BME280;3707;43.618;25.342;2023-02-18T03:52:16;100573.72;;;12.47;44.31
7333;BME280;3707;43.618;25.342;2023-02-18T03:54:44;100569.44;;;12.50;44.34
7333;BME280;3707;43.618;25.342;2023-02-18T03:57:11;100579.97;;;12.59;43.85
7333;BME280;3707;43.618;25.342;2023-02-18T03:59:38;100570.63;;;12.72;43.66
7333;BME280;3707;43.618;25.342;2023-02-18T04:02:05;100580.25;;;12.79;43.26
7333;BME280;3707;43.618;25.342;2023-02-18T04:04:32;100577.75;;;12.85;43.39
7333;BME280;3707;43.618;25.342;2023-02-18T04:06:58;100580.34;;;12.83;43.40
7333;BME280;3707;43.618;25.342;2023-02-18T04:09:25;100568.13;;;12.79;43.78
7333;BME280;3707;43.618;25.342;2023-02-18T04:11:53;100555.06;;;12.75;44.20
7333;BME280;3707;43.618;25.342;2023-02-18T04:14:20;100527.13;;;12.62;43.70
7333;BME280;3707;43.618;25.342;2023-02-18T04:16:47;100538.66;;;12.82;43.65
7333;BME280;3707;43.618;25.342;2023-02-18T04:19:14;100515.19;;;12.76;44.34
7333;BME280;3707;43.618;25.342;2023-02-18T04:21:40;100524.06;;;12.93;43.02
7333;BME280;3707;43.618;25.342;2023-02-18T04:24:07;100502.38;;;12.92;42.86
7333;BME280;3707;43.618;25.342;2023-02-18T04:26:34;100527.63;;;13.00;43.77
7333;BME280;3707;43.618;25.342;2023-02-18T04:29:02;100517.31;;;13.07;43.54
7333;BME280;3707;43.618;25.342;2023-02-18T04:31:29;100496.53;;;13.10;43.02
7333;BME280;3707;43.618;25.342;2023-02-18T04:33:56;100520.81;;;13.09;42.63
7333;BME280;3707;43.618;25.342;2023-02-18T04:36:23;100502.69;;;13.15;42.77
7333;BME280;3707;43.618;25.342;2023-02-18T04:38:49;100510.50;;;13.15;42.85
7333;BME280;3707;43.618;25.342;2023-02-18T04:41:16;100470.44;;;13.07;42.73
7333;BME280;3707;43.618;25.342;2023-02-18T04:43:43;100490.66;;;13.26;42.12
7333;BME280;3707;43.618;25.342;2023-02-18T04:46:11;100484.66;;;13.33;42.18
7333;BME280;3707;43.618;25.342;2023-02-18T04:48:38;100502.09;;;13.40;42.42
7333;BME280;3707;43.618;25.342;2023-02-18T04:51:05;100487.38;;;13.47;41.72
7333;BME280;3707;43.618;25.342;2023-02-18T04:53:32;100493.56;;;13.60;41.30
7333;BME280;3707;43.618;25.342;2023-02-18T04:55:59;100484.03;;;13.60;41.97
7333;BME280;3707;43.618;25.342;2023-02-18T04:58:27;100459.69;;;13.57;41.43
7333;BME280;3707;43.618;25.342;2023-02-18T05:00:58;100464.03;;;13.58;41.68
7333;BME280;3707;43.618;25.342;2023-02-18T05:03:26;100476.28;;;13.68;41.31
7333;BME280;3707;43.618;25.342;2023-02-18T05:05:56;100433.56;;;13.49;41.46
7333;BME280;3707;43.618;25.342;2023-02-18T05:08:23;100442.22;;;13.44;42.08
7333;BME280;3707;43.618;25.342;2023-02-18T05:10:49;100469.28;;;13.61;41.94
7333;BME280;3707;43.618;25.342;2023-02-18T05:13:16;100458.00;;;13.63;41.77
7333;BME280;3707;43.618;25.342;2023-02-18T05:15:43;100441.38;;;13.49;41.52
7333;BME280;3707;43.618;25.342;2023-02-18T05:18:10;100469.28;;;13.64;41.13
7333;BME280;3707;43.618;25.342;2023-02-18T05:20:38;100444.06;;;13.57;41.42
7333;BME280;3707;43.618;25.342;2023-02-18T05:23:05;100459.81;;;13.72;41.11
7333;BME280;3707;43.618;25.342;2023-02-18T05:25:32;100464.19;;;13.73;41.68
7333;BME280;3707;43.618;25.342;2023-02-18T05:27:58;100452.78;;;13.63;41.59
7333;BME280;3707;43.618;25.342;2023-02-18T05:30:25;100460.66;;;13.68;41.69
7333;BME280;3707;43.618;25.342;2023-02-18T05:32:52;100460.59;;;13.59;41.63
7333;BME280;3707;43.618;25.342;2023-02-18T05:35:19;100441.38;;;13.48;42.25
7333;BME280;3707;43.618;25.342;2023-02-18T05:37:47;100470.88;;;13.47;42.12
7333;BME280;3707;43.618;25.342;2023-02-18T05:40:14;100467.31;;;13.38;42.47
7333;BME280;3707;43.618;25.342;2023-02-18T05:42:40;100468.13;;;13.31;43.00
7333;BME280;3707;43.618;25.342;2023-02-18T05:45:08;100473.31;;;13.28;43.34
7333;BME280;3707;43.618;25.342;2023-02-18T05:47:35;100468.81;;;13.14;43.37
7333;BME280;3707;43.618;25.342;2023-02-18T05:50:02;100488.75;;;13.13;43.58
7333;BME280;3707;43.618;25.342;2023-02-18T05:52:29;100475.56;;;13.00;43.94
7333;BME280;3707;43.618;25.342;2023-02-18T05:54:57;100478.28;;;13.09;43.88
7333;BME280;3707;43.618;25.342;2023-02-18T05:57:25;100480.81;;;13.04;43.95
7333;BME280;3707;43.618;25.342;2023-02-18T05:59:51;100487.72;;;13.02;43.99
7333;BME280;3707;43.618;25.342;2023-02-18T06:02:18;100484.31;;;13.06;44.56
7333;BME280;3707;43.618;25.342;2023-02-18T06:04:45;100469.41;;;12.93;44.76
7333;BME280;3707;43.618;25.342;2023-02-18T06:07:12;100496.34;;;12.97;44.55
7333;BME280;3707;43.618;25.342;2023-02-18T06:09:39;100496.28;;;12.92;45.13
7333;BME280;3707;43.618;25.342;2023-02-18T06:12:08;100506.00;;;13.07;44.57
7333;BME280;3707;43.618;25.342;2023-02-18T06:14:35;100493.72;;;12.95;45.30
7333;BME280;3707;43.618;25.342;2023-02-18T06:17:01;100507.75;;;13.08;45.01
7333;BME280;3707;43.618;25.342;2023-02-18T06:19:28;100499.00;;;13.01;45.02
7333;BME280;3707;43.618;25.342;2023-02-18T06:21:55;100492.91;;;12.99;45.09
7333;BME280;3707;43.618;25.342;2023-02-18T06:24:22;100502.50;;;13.03;45.42
7333;BME280;3707;43.618;25.342;2023-02-18T06:26:48;100506.00;;;13.07;45.04
7333;BME280;3707;43.618;25.342;2023-02-18T06:29:16;100475.63;;;13.04;44.59
7333;BME280;3707;43.618;25.342;2023-02-18T06:31:43;100463.53;;;13.09;44.63
7333;BME280;3707;43.618;25.342;2023-02-18T06:34:10;100499.41;;;13.34;44.20
7333;BME280;3707;43.618;25.342;2023-02-18T06:36:37;100487.28;;;13.36;44.03
7333;BME280;3707;43.618;25.342;2023-02-18T06:39:05;100499.56;;;13.50;43.95
7333;BME280;3707;43.618;25.342;2023-02-18T06:41:33;100511.84;;;13.61;43.48
7333;BME280;3707;43.618;25.342;2023-02-18T06:44:00;100516.22;;;13.67;43.52
7333;BME280;3707;43.618;25.342;2023-02-18T06:46:28;100516.31;;;13.73;42.64
7333;BME280;3707;43.618;25.342;2023-02-18T06:48:55;100496.31;;;13.73;42.71
7333;BME280;3707;43.618;25.342;2023-02-18T06:51:23;100508.59;;;13.86;42.87
7333;BME280;3707;43.618;25.342;2023-02-18T06:53:50;100499.09;;;13.93;42.77
7333;BME280;3707;43.618;25.342;2023-02-18T06:56:17;100494.72;;;13.92;42.88
7333;BME280;3707;43.618;25.342;2023-02-18T06:58:43;100478.34;;;14.05;42.26
7333;BME280;3707;43.618;25.342;2023-02-18T07:01:10;100470.53;;;14.05;42.19
7333;BME280;3707;43.618;25.342;2023-02-18T07:03:38;100497.63;;;14.31;42.46
7333;BME280;3707;43.618;25.342;2023-02-18T07:06:06;100497.75;;;14.44;41.77
7333;BME280;3707;43.618;25.342;2023-02-18T07:08:32;100494.34;;;14.60;41.46
7333;BME280;3707;43.618;25.342;2023-02-18T07:11:00;100497.84;;;14.59;41.55
7333;BME280;3707;43.618;25.342;2023-02-18T07:13:27;100506.56;;;14.64;41.37
7333;BME280;3707;43.618;25.342;2023-02-18T07:15:54;100502.22;;;14.70;41.55
7333;BME280;3707;43.618;25.342;2023-02-18T07:18:20;100496.13;;;14.67;41.56
7333;BME280;3707;43.618;25.342;2023-02-18T07:20:49;100494.34;;;14.60;41.79
7333;BME280;3707;43.618;25.342;2023-02-18T07:23:15;100501.34;;;14.70;41.85
7333;BME280;3707;43.618;25.342;2023-02-18T07:25:42;100499.66;;;14.75;41.83
7333;BME280;3707;43.618;25.342;2023-02-18T07:28:09;100493.63;;;14.86;41.54
7333;BME280;3707;43.618;25.342;2023-02-18T07:30:36;100470.03;;;14.70;42.06
7333;BME280;3707;43.618;25.342;2023-02-18T07:33:03;100483.16;;;14.79;41.81
7333;BME280;3707;43.618;25.342;2023-02-18T07:35:29;100470.94;;;14.72;41.95
7333;BME280;3707;43.618;25.342;2023-02-18T07:37:58;100494.56;;;15.05;42.03
7333;BME280;3707;43.618;25.342;2023-02-18T07:40:27;100504.97;;;14.93;42.46
7333;BME280;3707;43.618;25.342;2023-02-18T07:42:54;100497.06;;;14.84;42.25
7333;BME280;3707;43.618;25.342;2023-02-18T07:45:20;100498.84;;;14.93;42.28
7333;BME280;3707;43.618;25.342;2023-02-18T07:47:47;100494.50;;;14.93;42.15
7333;BME280;3707;43.618;25.342;2023-02-18T07:50:14;100480.50;;;14.73;42.21
7333;BME280;3707;43.618;25.342;2023-02-18T07:52:41;100515.41;;;14.93;42.08
7333;BME280;3707;43.618;25.342;2023-02-18T07:55:09;100520.69;;;15.08;42.31
7333;BME280;3707;43.618;25.342;2023-02-18T07:57:36;100512.81;;;14.99;42.10
7333;BME280;3707;43.618;25.342;2023-02-18T08:00:22;100518.06;;;15.04;42.11
7333;BME280;3707;43.618;25.342;2023-02-18T08:02:49;100527.63;;;15.03;42.21
7333;BME280;3707;43.618;25.342;2023-02-18T08:05:15;100504.09;;;14.93;42.31
7333;BME280;3707;43.618;25.342;2023-02-18T08:07:42;100504.97;;;14.96;42.07
7333;BME280;3707;43.618;25.342;2023-02-18T08:10:10;100499.75;;;15.02;42.16
7333;BME280;3707;43.618;25.342;2023-02-18T08:12:37;100524.16;;;15.07;42.64
7333;BME280;3707;43.618;25.342;2023-02-18T08:15:04;100518.09;;;15.11;42.30
7333;BME280;3707;43.618;25.342;2023-02-18T08:17:31;100516.34;;;15.10;42.30
7333;BME280;3707;43.618;25.342;2023-02-18T08:19:58;100524.22;;;15.25;42.01
7333;BME280;3707;43.618;25.342;2023-02-18T08:22:25;100506.78;;;15.18;42.30
7333;BME280;3707;43.618;25.342;2023-02-18T08:24:53;100500.72;;;15.28;42.42
7333;BME280;3707;43.618;25.342;2023-02-18T08:27:22;100508.56;;;15.37;42.47
7333;BME280;3707;43.618;25.342;2023-02-18T08:29:49;100488.53;;;15.32;42.53
7333;BME280;3707;43.618;25.342;2023-02-18T08:32:16;100498.16;;;15.47;42.65
7333;BME280;3707;43.618;25.342;2023-02-18T08:34:43;100492.97;;;15.51;42.68
7333;BME280;3707;43.618;25.342;2023-02-18T08:37:10;100487.75;;;15.62;42.65
7333;BME280;3707;43.618;25.342;2023-02-18T08:39:38;100473.81;;;15.69;42.35
7333;BME280;3707;43.618;25.342;2023-02-18T08:42:05;100493.84;;;15.80;42.42
7333;BME280;3707;43.618;25.342;2023-02-18T08:44:33;100497.34;;;15.96;42.18
7333;BME280;3707;43.618;25.342;2023-02-18T08:47:00;100473.81;;;15.96;42.15
7333;BME280;3707;43.618;25.342;2023-02-18T08:49:26;100493.00;;;16.15;41.83
7333;BME280;3707;43.618;25.342;2023-02-18T08:51:53;100482.53;;;16.19;41.70
7333;BME280;3707;43.618;25.342;2023-02-18T08:54:20;100413.69;;;15.76;42.42
7333;BME280;3707;43.618;25.342;2023-02-18T08:56:47;100499.06;;;16.27;41.99
7333;BME280;3707;43.618;25.342;2023-02-18T08:59:14;100506.03;;;16.31;42.12
7333;BME280;3707;43.618;25.342;2023-02-18T09:01:42;100495.59;;;16.33;42.13
7333;BME280;3707;43.618;25.342;2023-02-18T09:04:09;100505.16;;;16.35;41.65
7333;BME280;3707;43.618;25.342;2023-02-18T09:06:36;100506.94;;;16.21;41.53
7333;BME280;3707;43.618;25.342;2023-02-18T09:09:03;100471.19;;;15.96;41.97
7333;BME280;3707;43.618;25.342;2023-02-18T09:11:30;100518.28;;;16.04;41.88
7333;BME280;3707;43.618;25.342;2023-02-18T09:13:57;100501.69;;;16.09;41.88
7333;BME280;3707;43.618;25.342;2023-02-18T09:16:24;100510.41;;;16.02;41.58
7333;BME280;3707;43.618;25.342;2023-02-18T09:18:54;100514.78;;;16.11;42.11
7333;BME280;3707;43.618;25.342;2023-02-18T09:21:21;100486.91;;;15.98;42.32
7333;BME280;3707;43.618;25.342;2023-02-18T09:23:49;100503.47;;;16.01;42.32
7333;BME280;3707;43.618;25.342;2023-02-18T09:26:18;100495.59;;;15.92;42.53
7333;BME280;3707;43.618;25.342;2023-02-18T09:28:47;100489.53;;;15.87;42.39
7333;BME280;3707;43.618;25.342;2023-02-18T09:31:17;100505.19;;;16.05;42.06
7333;BME280;3707;43.618;25.342;2023-02-18T09:33:46;100505.19;;;15.99;42.47
7333;BME280;3707;43.618;25.342;2023-02-18T09:36:16;100476.41;;;15.99;41.96
7333;BME280;3707;43.618;25.342;2023-02-18T09:38:45;100493.78;;;16.50;41.84
7333;BME280;3707;43.618;25.342;2023-02-18T09:41:15;100489.44;;;16.60;41.41
7333;BME280;3707;43.618;25.342;2023-02-18T09:43:47;100481.53;;;16.70;41.37
7333;BME280;3707;43.618;25.342;2023-02-18T09:46:18;100481.50;;;16.78;41.40
7333;BME280;3707;43.618;25.342;2023-02-18T09:48:47;100474.47;;;16.92;41.38
7333;BME280;3707;43.618;25.342;2023-02-18T09:51:16;100475.41;;;16.79;41.52
7333;BME280;3707;43.618;25.342;2023-02-18T09:53:44;100457.09;;;16.70;41.64
7333;BME280;3707;43.618;25.342;2023-02-18T09:56:15;100438.88;;;16.33;41.89
7333;BME280;3707;43.618;25.342;2023-02-18T09:58:45;100481.53;;;16.55;41.75
7333;BME280;3707;43.618;25.342;2023-02-18T10:01:18;100459.81;;;16.33;42.26
7333;BME280;3707;43.618;25.342;2023-02-18T10:03:46;100475.53;;;16.33;42.39
7333;BME280;3707;43.618;25.342;2023-02-18T10:06:19;100485.13;;;16.25;42.54
7333;BME280;3707;43.618;25.342;2023-02-18T10:08:49;100473.78;;;16.32;42.74
7333;BME280;3707;43.618;25.342;2023-02-18T10:11:23;100446.75;;;16.20;42.60
7333;BME280;3707;43.618;25.342;2023-02-18T10:13:55;100451.94;;;16.47;42.64
7333;BME280;3707;43.618;25.342;2023-02-18T10:16:23;100437.97;;;16.37;42.56
7333;BME280;3707;43.618;25.342;2023-02-18T10:18:53;100417.97;;;16.09;42.47
7333;BME280;3707;43.618;25.342;2023-02-18T10:21:24;100437.06;;;16.45;42.49
7333;BME280;3707;43.618;25.342;2023-02-18T10:23:58;100453.66;;;16.57;42.43
7333;BME280;3707;43.618;25.342;2023-02-18T10:26:28;100449.34;;;16.24;42.96
7333;BME280;3707;43.618;25.342;2023-02-18T10:28:56;100444.91;;;16.55;42.75
7333;BME280;3707;43.618;25.342;2023-02-18T10:31:28;100458.00;;;16.54;42.83
7333;BME280;3707;43.618;25.342;2023-02-18T10:33:59;100452.75;;;16.55;42.96
7333;BME280;3707;43.618;25.342;2023-02-18T10:36:35;100457.16;;;16.47;43.22
7333;BME280;3707;43.618;25.342;2023-02-18T10:42:08;100459.75;;;16.55;43.68
7333;BME280;3707;43.618;25.342;2023-02-18T10:44:48;100455.44;;;16.40;44.11
7333;BME280;3707;43.618;25.342;2023-02-18T10:47:29;100463.25;;;16.45;44.14
7333;BME280;3707;43.618;25.342;2023-02-18T10:50:04;100446.66;;;16.49;44.50
7333;BME280;3707;43.618;25.342;2023-02-18T10:52:39;100460.66;;;16.46;44.42
7333;BME280;3707;43.618;25.342;2023-02-18T10:55:08;100433.56;;;16.52;44.63
7333;BME280;3707;43.618;25.342;2023-02-18T10:57:45;100445.78;;;16.65;44.02
7333;BME280;3707;43.618;25.342;2023-02-18T11:00:16;100449.28;;;16.61;44.46
7333;BME280;3707;43.618;25.342;2023-02-18T11:02:43;100463.25;;;16.49;43.88
7333;BME280;3707;43.618;25.342;2023-02-18T11:05:20;100447.53;;;16.45;43.97
7333;BME280;3707;43.618;25.342;2023-02-18T11:07:52;100423.19;;;16.21;43.67
7333;BME280;3707;43.618;25.342;2023-02-18T11:10:23;100440.56;;;16.53;43.98
7333;BME280;3707;43.618;25.342;2023-02-18T11:12:54;100424.84;;;16.59;43.77
7333;BME280;3707;43.618;25.342;2023-02-18T11:15:23;100428.34;;;16.49;43.41
7333;BME280;3707;43.618;25.342;2023-02-18T11:17:52;100433.59;;;16.47;43.55
7333;BME280;3707;43.618;25.342;2023-02-18T11:20:27;100433.66;;;16.27;43.64
7333;BME280;3707;43.618;25.342;2023-02-18T11:23:18;100412.75;;;16.23;44.04
7333;BME280;3707;43.618;25.342;2023-02-18T11:25:54;100430.16;;;16.31;45.06
7333;BME280;3707;43.618;25.342;2023-02-18T11:28:28;100401.41;;;16.16;44.29
7333;BME280;3707;43.618;25.342;2023-02-18T11:30:58;100433.63;;;16.38;44.25
7333;BME280;3707;43.618;25.342;2023-02-18T11:33:32;100423.13;;;16.43;44.47
7333;BME280;3707;43.618;25.342;2023-02-18T11:36:04;100424.00;;;16.45;45.27
7333;BME280;3707;43.618;25.342;2023-02-18T11:38:36;100426.63;;;16.38;44.85
7333;BME280;3707;43.618;25.342;2023-02-18T11:41:07;100404.00;;;16.16;44.82
7333;BME280;3707;43.618;25.342;2023-02-18T11:43:35;100427.53;;;16.24;45.33
7333;BME280;3707;43.618;25.342;2023-02-18T11:46:10;100417.94;;;16.27;45.30
7333;BME280;3707;43.618;25.342;2023-02-18T11:48:39;100421.41;;;16.31;45.38
7333;BME280;3707;43.618;25.342;2023-02-18T11:51:15;100410.97;;;16.29;45.25
7333;BME280;3707;43.618;25.342;2023-02-18T11:53:56;100396.16;;;16.28;45.52
7333;BME280;3707;43.618;25.342;2023-02-18T11:56:25;100391.78;;;16.27;45.29
7333;BME280;3707;43.618;25.342;2023-02-18T11:58:52;100393.53;;;16.28;45.53
7333;BME280;3707;43.618;25.342;2023-02-18T12:01:30;100376.91;;;16.42;45.44
7333;BME280;3707;43.618;25.342;2023-02-18T12:04:05;100391.75;;;16.44;45.49
7333;BME280;3707;43.618;25.342;2023-02-18T12:06:37;100349.97;;;16.09;45.82
7333;BME280;3707;43.618;25.342;2023-02-18T12:09:17;100363.88;;;16.26;45.75
7333;BME280;3707;43.618;25.342;2023-02-18T12:11:48;100353.44;;;16.19;45.81
7333;BME280;3707;43.618;25.342;2023-02-18T12:14:17;100371.66;;;16.43;45.87
7333;BME280;3707;43.618;25.342;2023-02-18T12:16:56;100374.28;;;16.42;45.98
7333;BME280;3707;43.618;25.342;2023-02-18T12:19:51;100286.41;;;15.94;45.91
7333;BME280;3707;43.618;25.342;2023-02-18T12:22:29;100353.41;;;16.32;46.22
7333;BME280;3707;43.618;25.342;2023-02-18T12:25:24;100354.22;;;16.37;46.13
7333;BME280;3707;43.618;25.342;2023-02-18T12:28:09;100358.66;;;16.29;46.41
7333;BME280;3707;43.618;25.342;2023-02-18T12:31:03;100358.56;;;16.45;46.53
7333;BME280;3707;43.618;25.342;2023-02-18T12:33:42;100354.22;;;16.42;46.80
7333;BME280;3707;43.618;25.342;2023-02-18T12:36:23;100349.91;;;16.33;46.90
7333;BME280;3707;43.618;25.342;2023-02-18T12:39:02;100364.66;;;16.45;47.00
7333;BME280;3707;43.618;25.342;2023-02-18T12:41:50;100349.91;;;16.32;47.15
7333;BME280;3707;43.618;25.342;2023-02-18T12:44:38;100348.13;;;16.38;47.12
7333;BME280;3707;43.618;25.342;2023-02-18T12:47:33;100344.59;;;16.47;47.77
7333;BME280;3707;43.618;25.342;2023-02-18T12:53:14;100355.06;;;16.50;47.93
7333;BME280;3707;43.618;25.342;2023-02-18T12:56:04;100356.75;;;16.69;47.69
7333;BME280;3707;43.618;25.342;2023-02-18T12:58:41;100342.81;;;16.60;48.17
7333;BME280;3707;43.618;25.342;2023-02-18T13:01:27;100349.78;;;16.59;48.40
7333;BME280;3707;43.618;25.342;2023-02-18T13:04:23;100344.53;;;16.67;48.47
7333;BME280;3707;43.618;25.342;2023-02-18T13:09:53;100353.25;;;16.69;49.35
7333;BME280;3707;43.618;25.342;2023-02-18T13:12:29;100345.34;;;16.78;49.63
7333;BME280;3707;43.618;25.342;2023-02-18T13:15:10;100269.63;;;16.35;49.91
7333;BME280;3707;43.618;25.342;2023-02-18T13:17:40;100262.63;;;16.37;50.30
7333;BME280;3707;43.618;25.342;2023-02-18T13:20:16;100341.03;;;16.68;50.23
7333;BME280;3707;43.618;25.342;2023-02-18T13:22:45;100347.09;;;16.74;50.20
7333;BME280;3707;43.618;25.342;2023-02-18T13:25:16;100313.16;;;16.58;50.26
7333;BME280;3707;43.618;25.342;2023-02-18T13:27:49;100342.78;;;16.63;50.23
7333;BME280;3707;43.618;25.342;2023-02-18T13:30:23;100338.41;;;16.69;50.23
7333;BME280;3707;43.618;25.342;2023-02-18T13:33:05;100351.53;;;16.65;50.37
7333;BME280;3707;43.618;25.342;2023-02-18T13:35:39;100341.94;;;16.65;50.48
7333;BME280;3707;43.618;25.342;2023-02-18T13:38:34;100344.53;;;16.64;50.54